createdAt,value
2019-03-10T00:01:25.187Z,77.60
2019-03-10T00:03:58.087Z,76.50
2019-03-10T00:06:31.008Z,75.40
2019-03-10T00:09:05.091Z,75.40
2019-03-10T00:11:38.427Z,73.00
2019-03-10T00:14:11.430Z,74.30
2019-03-10T00:16:44.707Z,73.80
2019-03-10T00:19:17.727Z,74.20
2019-03-10T00:21:50.609Z,74.70
2019-03-10T00:24:24.128Z,71.90
2019-03-10T00:26:57.551Z,70.00
2019-03-10T00:29:30.467Z,70.60
2019-03-10T00:32:03.535Z,65.80
2019-03-10T00:34:36.369Z,59.40
2019-03-10T00:37:09.589Z,56.90
2019-03-10T00:39:43.048Z,53.70
2019-03-10T00:42:15.895Z,54.00
2019-03-10T00:44:49.067Z,52.10
2019-03-10T00:47:21.928Z,52.00
2019-03-10T00:49:55.327Z,51.00
2019-03-10T00:52:28.508Z,52.40
2019-03-10T00:55:01.527Z,51.40
2019-03-10T00:57:34.492Z,49.00
2019-03-10T01:00:08.007Z,47.50
2019-03-10T01:02:40.927Z,46.60
2019-03-10T01:05:14.127Z,47.10
2019-03-10T01:07:47.427Z,46.40
2019-03-10T01:10:20.776Z,47.70
2019-03-10T01:12:53.669Z,47.80
2019-03-10T01:15:26.707Z,46.50
2019-03-10T01:18:00.007Z,46.40
2019-03-10T01:20:32.969Z,45.80
2019-03-10T01:23:05.868Z,48.40
2019-03-10T01:25:39.629Z,46.40
2019-03-10T01:28:12.447Z,45.80
2019-03-10T01:30:45.347Z,45.90
2019-03-10T01:33:19.015Z,46.10
2019-03-10T01:35:51.946Z,46.60
2019-03-10T01:38:24.847Z,45.60
2019-03-10T01:40:58.207Z,48.80
2019-03-10T01:43:31.068Z,46.30
2019-03-10T01:46:04.077Z,44.80
2019-03-10T01:48:37.287Z,43.70
2019-03-10T01:51:10.248Z,46.30
2019-03-10T01:53:43.227Z,47.70
2019-03-10T01:56:16.688Z,45.20
2019-03-10T01:58:50.107Z,43.70
2019-03-10T02:01:23.229Z,44.40
2019-03-10T02:03:56.128Z,45.90
2019-03-10T02:06:29.075Z,44.90
2019-03-10T02:09:01.883Z,46.60
2019-03-10T02:11:34.847Z,44.40
2019-03-10T02:14:07.855Z,44.60
2019-03-10T02:16:41.120Z,44.50
2019-03-10T02:19:13.959Z,45.10
2019-03-10T02:21:46.911Z,44.70
2019-03-10T02:24:23.642Z,45.70
2019-03-10T02:26:54.715Z,50.20
2019-03-10T02:29:27.927Z,50.00
2019-03-10T02:32:01.415Z,49.40
2019-03-10T02:34:34.908Z,53.30
2019-03-10T02:37:07.687Z,56.30
2019-03-10T02:39:40.557Z,58.20
2019-03-10T02:42:13.898Z,60.30
2019-03-10T02:44:47.068Z,63.80
2019-03-10T02:47:19.988Z,66.40
2019-03-10T02:49:52.935Z,67.10
2019-03-10T02:52:27.107Z,68.40
2019-03-10T02:54:59.933Z,70.10
2019-03-10T02:57:32.870Z,73.10
2019-03-10T03:00:05.747Z,73.60
2019-03-10T03:02:38.727Z,74.60
2019-03-10T03:05:11.833Z,75.00
2019-03-10T03:07:44.877Z,76.20
2019-03-10T03:10:17.728Z,77.50
2019-03-10T03:12:50.969Z,76.80
2019-03-10T03:15:23.829Z,76.80
2019-03-10T03:17:56.788Z,77.40
2019-03-10T03:20:29.631Z,78.20
2019-03-10T03:23:02.403Z,79.90
2019-03-10T03:25:35.674Z,79.60
2019-03-10T03:28:08.651Z,79.00
2019-03-10T03:30:41.853Z,78.90
2019-03-10T03:33:14.832Z,78.30
2019-03-10T03:35:47.867Z,79.30
2019-03-10T03:38:20.798Z,78.90
2019-03-10T03:40:54.228Z,78.10
2019-03-10T03:43:27.687Z,78.20
2019-03-10T03:46:00.469Z,77.50
2019-03-10T03:48:33.432Z,75.90
2019-03-10T03:51:06.348Z,76.30
2019-03-10T03:53:39.217Z,75.20
2019-03-10T03:56:12.189Z,76.40
2019-03-10T03:58:45.711Z,76.30
2019-03-10T04:01:20.227Z,74.70
2019-03-10T04:03:53.091Z,73.90
2019-03-10T04:06:26.148Z,76.40
2019-03-10T04:08:59.468Z,77.20
2019-03-10T04:11:32.229Z,75.70
2019-03-10T04:14:06.149Z,74.90
2019-03-10T04:16:39.668Z,75.10
2019-03-10T04:19:12.669Z,75.10
2019-03-10T04:21:45.460Z,76.80
2019-03-10T04:24:19.109Z,75.20
2019-03-10T04:26:52.790Z,74.30
2019-03-10T04:29:25.767Z,71.20
2019-03-10T04:31:59.248Z,69.20
2019-03-10T04:34:32.144Z,69.50
2019-03-10T04:37:05.227Z,70.40
2019-03-10T04:39:38.236Z,70.50
2019-03-10T04:42:11.048Z,70.40
2019-03-10T04:44:44.295Z,71.30
2019-03-10T04:47:17.350Z,71.00
2019-03-10T04:49:50.395Z,69.90
2019-03-10T04:52:23.569Z,68.80
2019-03-10T04:55:00.050Z,65.50
2019-03-10T04:57:32.867Z,66.70
2019-03-10T05:00:06.507Z,66.00
2019-03-10T05:02:39.430Z,67.20
2019-03-10T05:05:12.508Z,67.80
2019-03-10T05:07:46.267Z,67.30
2019-03-10T05:10:19.508Z,66.90
2019-03-10T05:12:52.427Z,66.30
2019-03-10T05:15:25.247Z,65.90
2019-03-10T05:17:58.108Z,67.70
2019-03-10T05:20:34.347Z,68.50
2019-03-10T05:23:07.247Z,69.60
2019-03-10T05:25:40.082Z,68.90
2019-03-10T05:28:13.087Z,70.70
2019-03-10T05:30:46.111Z,68.00
2019-03-10T05:33:19.069Z,69.50
2019-03-10T05:35:52.027Z,69.10
2019-03-10T05:38:25.227Z,68.50
2019-03-10T05:40:58.047Z,67.50
2019-03-10T05:43:31.568Z,67.60
2019-03-10T05:46:04.372Z,69.70
2019-03-10T05:48:37.267Z,68.60
2019-03-10T05:51:10.587Z,69.30
2019-03-10T05:53:43.827Z,69.70
2019-03-10T05:56:17.567Z,70.20
2019-03-10T05:58:50.410Z,71.20
2019-03-10T06:01:24.267Z,71.30
2019-03-10T06:03:57.168Z,71.00
2019-03-10T06:06:30.107Z,70.50
2019-03-10T06:09:02.774Z,71.60
2019-03-10T06:11:36.067Z,72.10
2019-03-10T06:14:09.027Z,72.30
2019-03-10T06:16:42.127Z,69.20
2019-03-10T06:19:14.947Z,63.50
2019-03-10T06:21:47.907Z,62.10
2019-03-10T06:24:20.787Z,64.40
2019-03-10T06:26:53.707Z,63.20
2019-03-10T06:29:26.667Z,61.20
2019-03-10T06:32:00.071Z,59.90
2019-03-10T06:34:32.908Z,61.30
2019-03-10T06:37:05.811Z,62.30
2019-03-10T06:39:39.667Z,65.50
2019-03-10T06:42:13.667Z,67.60
2019-03-10T06:44:46.467Z,68.40
2019-03-10T06:47:19.567Z,67.50
2019-03-10T06:49:53.034Z,67.90
2019-03-10T06:52:26.367Z,67.90
2019-03-10T06:55:00.138Z,66.90
2019-03-10T06:57:33.087Z,68.70
2019-03-10T07:00:05.894Z,68.60
2019-03-10T07:02:39.207Z,69.10
2019-03-10T07:05:12.607Z,70.60
2019-03-10T07:07:45.827Z,71.00
2019-03-10T07:10:18.767Z,71.20
2019-03-10T07:12:51.867Z,71.70
2019-03-10T07:15:25.327Z,72.10
2019-03-10T07:17:58.233Z,74.60
2019-03-10T07:20:31.347Z,74.30
2019-03-10T07:23:05.857Z,74.10
2019-03-10T07:25:39.201Z,72.00
2019-03-10T07:28:19.567Z,73.00
2019-03-10T07:31:02.649Z,73.80
2019-03-10T07:33:43.387Z,73.30
2019-03-10T07:36:24.028Z,73.40
2019-03-10T07:39:01.267Z,76.80
2019-03-10T07:41:41.467Z,76.80
2019-03-10T07:44:18.687Z,79.50
2019-03-10T07:46:59.212Z,79.20
2019-03-10T07:49:33.633Z,80.90
2019-03-10T07:52:20.346Z,80.20
2019-03-10T07:55:05.887Z,79.20
2019-03-10T07:57:40.207Z,79.00
2019-03-10T08:00:30.807Z,79.20
2019-03-10T08:03:13.308Z,80.40
2019-03-10T08:05:49.870Z,80.80
2019-03-10T08:08:24.627Z,80.10
2019-03-10T08:11:04.907Z,79.50
2019-03-10T08:13:49.708Z,80.00
2019-03-10T08:16:33.087Z,81.20
2019-03-10T08:19:23.789Z,81.90
2019-03-10T08:22:14.377Z,81.20
2019-03-10T08:25:04.796Z,80.80
2019-03-10T08:28:01.651Z,78.20
2019-03-10T08:30:41.548Z,77.30
2019-03-10T08:33:33.907Z,78.30
2019-03-10T08:36:07.487Z,77.50
2019-03-10T08:38:58.271Z,78.40
2019-03-10T08:41:40.388Z,78.60
2019-03-10T08:44:24.107Z,79.40
2019-03-10T08:47:12.087Z,77.60
2019-03-10T08:49:52.847Z,78.00
2019-03-10T08:52:33.379Z,77.80
2019-03-10T08:55:24.275Z,78.10
2019-03-10T08:58:14.933Z,77.30
2019-03-10T09:01:01.769Z,75.40
2019-03-10T09:03:45.006Z,74.20
2019-03-10T09:06:28.509Z,73.60
2019-03-10T09:09:10.217Z,73.40
2019-03-10T09:11:51.747Z,72.20
2019-03-10T09:14:32.447Z,72.30
2019-03-10T09:17:19.006Z,72.10
2019-03-10T09:20:09.950Z,71.70
2019-03-10T09:22:47.743Z,71.40
2019-03-10T09:25:29.427Z,71.00
2019-03-10T09:28:03.847Z,70.30
2019-03-10T09:30:38.653Z,69.40
2019-03-10T09:33:16.091Z,69.10
2019-03-10T09:36:09.311Z,67.80
2019-03-10T09:38:50.387Z,69.50
2019-03-10T09:41:30.350Z,68.50
2019-03-10T09:44:11.107Z,65.20
2019-03-10T09:46:48.407Z,66.30
2019-03-10T09:49:25.587Z,66.30
2019-03-10T09:52:15.767Z,67.20
2019-03-10T09:55:01.000Z,66.10
2019-03-10T09:57:35.695Z,64.40
2019-03-10T10:00:22.407Z,63.80
2019-03-10T10:03:12.929Z,62.30
2019-03-10T10:05:48.549Z,61.30
2019-03-10T10:08:28.830Z,62.30
2019-03-10T10:11:13.247Z,62.10
2019-03-10T10:14:02.584Z,61.90
2019-03-10T10:16:46.049Z,62.70
2019-03-10T10:19:20.990Z,64.00
2019-03-10T10:21:55.630Z,62.30
2019-03-10T10:24:46.407Z,62.00
2019-03-10T10:27:23.833Z,61.40
2019-03-10T10:30:11.394Z,63.50
2019-03-10T10:32:55.114Z,60.60
2019-03-10T10:35:32.493Z,60.70
2019-03-10T10:38:18.734Z,60.70
2019-03-10T10:40:47.174Z,60.80
2019-03-10T10:43:27.632Z,59.80
2019-03-10T10:46:01.987Z,59.30
2019-03-10T10:48:51.508Z,60.10
2019-03-10T10:51:25.807Z,58.70
2019-03-10T10:54:06.329Z,60.10
2019-03-10T10:56:44.714Z,59.40
2019-03-10T10:59:25.182Z,60.50
2019-03-10T11:02:18.209Z,60.60
2019-03-10T11:04:52.692Z,53.90
2019-03-10T11:07:36.009Z,53.80
2019-03-10T11:10:19.547Z,55.00
2019-03-10T11:12:56.767Z,52.50
2019-03-10T11:15:48.327Z,54.60
2019-03-10T11:18:35.247Z,54.90
2019-03-10T11:21:25.787Z,55.00
2019-03-10T11:24:00.266Z,55.60
2019-03-10T11:26:40.395Z,56.00
2019-03-10T11:29:13.410Z,55.40
2019-03-10T11:31:47.967Z,55.60
2019-03-10T11:34:20.485Z,55.90
2019-03-10T11:37:13.307Z,57.00
2019-03-10T11:39:45.947Z,55.80
2019-03-10T11:42:23.149Z,56.30
2019-03-10T11:44:57.927Z,55.70
2019-03-10T11:47:32.849Z,55.40
2019-03-10T11:50:11.468Z,55.40
2019-03-10T11:53:02.192Z,56.30
2019-03-10T11:55:39.548Z,54.70
2019-03-10T11:58:23.408Z,55.20
2019-03-10T12:01:14.313Z,54.80
2019-03-10T12:04:05.088Z,52.80
2019-03-10T12:06:57.575Z,54.00
2019-03-10T12:09:31.187Z,55.10
2019-03-10T12:12:03.967Z,55.20
2019-03-10T12:14:36.848Z,54.70
2019-03-10T12:17:09.668Z,53.90
2019-03-10T12:19:42.627Z,54.70
2019-03-10T12:22:15.468Z,51.90
2019-03-10T12:24:48.326Z,51.60
2019-03-10T12:27:21.247Z,50.50
2019-03-10T12:29:54.007Z,50.40
2019-03-10T12:32:27.167Z,49.70
2019-03-10T12:35:00.296Z,49.30
2019-03-10T12:37:34.187Z,51.10
2019-03-10T12:40:07.806Z,49.30
2019-03-10T12:42:40.770Z,50.40
2019-03-10T12:45:13.786Z,51.80
2019-03-10T12:47:46.707Z,51.10
2019-03-10T12:50:19.597Z,50.60
2019-03-10T12:52:52.951Z,50.30
2019-03-10T12:55:25.871Z,50.90
2019-03-10T12:57:59.092Z,51.50
2019-03-10T13:00:31.948Z,50.90
2019-03-10T13:03:04.847Z,52.10
2019-03-10T13:05:38.288Z,52.10
2019-03-10T13:08:11.547Z,51.70
2019-03-10T13:10:44.347Z,50.60
2019-03-10T13:13:17.168Z,50.10
2019-03-10T13:15:50.133Z,50.50
2019-03-10T13:18:23.372Z,53.20
2019-03-10T13:20:56.331Z,52.90
2019-03-10T13:23:29.332Z,53.40
2019-03-10T13:26:02.090Z,52.70
2019-03-10T13:28:34.931Z,53.80
2019-03-10T13:31:07.771Z,53.40
2019-03-10T13:33:40.681Z,53.50
2019-03-10T13:36:14.391Z,54.10
2019-03-10T13:38:47.279Z,54.20
2019-03-10T13:41:20.148Z,54.40
2019-03-10T13:43:53.107Z,55.10
2019-03-10T13:46:26.187Z,56.90
2019-03-10T13:48:58.951Z,57.30
2019-03-10T13:51:32.268Z,57.60
2019-03-10T13:54:05.131Z,57.70
2019-03-10T13:56:38.087Z,56.40
2019-03-10T13:59:10.887Z,58.80
2019-03-10T14:01:43.895Z,57.50
2019-03-10T14:04:16.613Z,54.90
2019-03-10T14:06:49.513Z,52.90
2019-03-10T14:09:22.337Z,54.80
2019-03-10T14:11:55.237Z,57.20
2019-03-10T14:14:28.091Z,55.70
2019-03-10T14:17:01.100Z,56.90
2019-03-10T14:19:33.947Z,54.70
2019-03-10T14:22:06.844Z,54.70
2019-03-10T14:24:39.707Z,55.30
2019-03-10T14:27:12.671Z,56.20
2019-03-10T14:29:45.588Z,54.90
2019-03-10T14:32:18.440Z,54.00
2019-03-10T14:34:52.009Z,53.50
2019-03-10T14:37:24.935Z,54.90
2019-03-10T14:39:57.787Z,53.70
2019-03-10T14:42:32.231Z,54.00
2019-03-10T14:45:05.107Z,55.20
2019-03-10T14:47:38.147Z,55.30
2019-03-10T14:50:11.768Z,55.00
2019-03-10T14:52:44.767Z,56.40
2019-03-10T14:55:17.880Z,56.40
2019-03-10T14:57:50.760Z,56.60
2019-03-10T15:00:24.165Z,57.70
2019-03-10T15:02:57.080Z,58.60
2019-03-10T15:05:29.960Z,58.90
2019-03-10T15:08:02.804Z,58.70
2019-03-10T15:10:35.775Z,60.10
2019-03-10T15:13:11.168Z,60.60
2019-03-10T15:15:43.330Z,61.50
2019-03-10T15:18:16.112Z,63.00
2019-03-10T15:20:48.908Z,61.10
2019-03-10T15:23:21.710Z,62.10
2019-03-10T15:25:54.470Z,62.00
2019-03-10T15:28:27.609Z,62.80
2019-03-10T15:31:01.192Z,63.30
2019-03-10T15:33:34.209Z,64.00
2019-03-10T15:36:07.047Z,64.60
2019-03-10T15:38:39.869Z,65.20
2019-03-10T15:41:13.088Z,64.40
2019-03-10T15:43:45.935Z,65.10
2019-03-10T15:46:18.875Z,65.00
2019-03-10T15:48:52.188Z,65.40
2019-03-10T15:51:25.055Z,63.10
2019-03-10T15:53:58.287Z,66.70
2019-03-10T15:56:31.092Z,64.80
2019-03-10T15:59:03.968Z,67.30
2019-03-10T16:01:36.867Z,67.20
2019-03-10T16:04:11.548Z,68.10
2019-03-10T16:06:44.507Z,67.60
2019-03-10T16:09:17.787Z,68.50
2019-03-10T16:11:50.677Z,69.60
2019-03-10T16:14:23.515Z,68.50
2019-03-10T16:16:56.355Z,70.10
2019-03-10T16:19:29.348Z,68.80
2019-03-10T16:22:02.642Z,69.00
2019-03-10T16:24:36.128Z,70.40
2019-03-10T16:27:09.096Z,71.00
2019-03-10T16:29:41.847Z,71.40
2019-03-10T16:32:14.687Z,72.90
2019-03-10T16:34:47.651Z,73.20
2019-03-10T16:37:20.536Z,73.80
2019-03-10T16:39:55.011Z,73.50
2019-03-10T16:42:28.727Z,73.50
2019-03-10T16:45:01.592Z,75.00
2019-03-10T16:47:34.685Z,75.20
2019-03-10T16:50:07.568Z,75.90
2019-03-10T16:52:40.956Z,74.60
2019-03-10T16:55:13.947Z,75.50
2019-03-10T16:57:46.787Z,75.00
2019-03-10T17:00:21.350Z,75.70
2019-03-10T17:02:54.407Z,76.60
2019-03-10T17:05:27.389Z,77.20
2019-03-10T17:08:00.289Z,77.30
2019-03-10T17:10:33.109Z,77.70
2019-03-10T17:13:07.427Z,79.00
2019-03-10T17:15:40.347Z,80.40
2019-03-10T17:18:13.149Z,80.40
2019-03-10T17:20:46.047Z,79.90
2019-03-10T17:23:18.887Z,80.70
2019-03-10T17:25:51.808Z,80.80
2019-03-10T17:28:24.592Z,81.80
2019-03-10T17:30:57.489Z,82.40
2019-03-10T17:33:30.287Z,82.40
2019-03-10T17:36:03.081Z,81.70
2019-03-10T17:38:36.187Z,81.30
2019-03-10T17:41:09.347Z,82.00
2019-03-10T17:43:42.207Z,81.50
2019-03-10T17:46:15.572Z,81.50
2019-03-10T17:48:49.237Z,82.40
2019-03-10T17:51:22.207Z,83.80
2019-03-10T17:53:55.088Z,84.30
2019-03-10T17:56:28.187Z,84.20
2019-03-10T17:59:01.336Z,80.80
2019-03-10T18:01:34.387Z,81.00
2019-03-10T18:04:07.267Z,81.50
2019-03-10T18:06:40.210Z,82.00
2019-03-10T18:09:13.470Z,83.40
2019-03-10T18:11:46.902Z,84.30
2019-03-10T18:14:19.690Z,84.60
2019-03-10T18:16:52.568Z,85.30
2019-03-10T18:19:25.947Z,84.90
2019-03-10T18:21:58.810Z,84.80
2019-03-10T18:24:31.747Z,85.30
2019-03-10T18:27:04.675Z,85.10
2019-03-10T18:29:37.469Z,84.90
2019-03-10T18:32:10.779Z,84.70
2019-03-10T18:34:44.451Z,85.20
2019-03-10T18:37:17.809Z,84.30
2019-03-10T18:39:53.467Z,83.50
2019-03-10T18:42:26.447Z,85.20
2019-03-10T18:44:59.567Z,86.40
2019-03-10T18:47:32.945Z,86.50
2019-03-10T18:50:05.926Z,86.30
2019-03-10T18:52:39.187Z,84.90
2019-03-10T18:55:12.028Z,82.00
2019-03-10T18:57:45.267Z,83.50
2019-03-10T19:00:17.967Z,82.90
2019-03-10T19:02:51.548Z,83.80
2019-03-10T19:05:24.475Z,84.70
2019-03-10T19:07:57.396Z,83.00
2019-03-10T19:10:31.008Z,83.10
2019-03-10T19:13:03.787Z,84.00
2019-03-10T19:15:37.267Z,84.20
2019-03-10T19:18:10.947Z,84.00
2019-03-10T19:20:44.107Z,84.50
2019-03-10T19:23:17.115Z,85.30
2019-03-10T19:25:49.849Z,86.30
2019-03-10T19:28:23.190Z,85.50
2019-03-10T19:30:56.107Z,84.70
2019-03-10T19:33:28.947Z,83.50
2019-03-10T19:36:02.072Z,80.70
2019-03-10T19:38:35.042Z,81.40
2019-03-10T19:41:08.435Z,80.10
2019-03-10T19:43:41.407Z,80.10
2019-03-10T19:46:14.188Z,79.30
2019-03-10T19:48:47.067Z,78.40
2019-03-10T19:51:20.327Z,77.50
2019-03-10T19:53:53.307Z,76.60
2019-03-10T19:56:26.227Z,75.60
2019-03-10T19:58:59.487Z,76.20
2019-03-10T20:01:33.107Z,76.90
2019-03-10T20:04:06.087Z,74.90
2019-03-10T20:06:38.829Z,76.40
2019-03-10T20:09:13.387Z,78.00
2019-03-10T20:11:46.208Z,79.60
2019-03-10T20:14:19.320Z,77.50
2019-03-10T20:16:52.798Z,80.80
2019-03-10T20:19:25.649Z,79.70
2019-03-10T20:21:58.467Z,77.10
2019-03-10T20:24:31.367Z,76.10
2019-03-10T20:27:04.208Z,77.50
2019-03-10T20:29:37.147Z,77.30
2019-03-10T20:32:14.070Z,76.30
2019-03-10T20:34:44.775Z,76.70
2019-03-10T20:37:17.627Z,74.60
2019-03-10T20:39:50.806Z,74.00
2019-03-10T20:42:24.148Z,73.20
2019-03-10T20:44:57.076Z,73.60
2019-03-10T20:47:30.828Z,73.50
2019-03-10T20:50:03.735Z,71.40
2019-03-10T20:52:37.068Z,71.30
2019-03-10T20:55:09.968Z,69.90
2019-03-10T20:57:42.787Z,68.90
2019-03-10T21:00:17.708Z,66.60
2019-03-10T21:02:51.547Z,65.60
2019-03-10T21:05:24.467Z,65.50
2019-03-10T21:07:57.387Z,65.30
2019-03-10T21:10:30.167Z,63.30
2019-03-10T21:13:03.296Z,61.20
2019-03-10T21:15:36.268Z,61.20
2019-03-10T21:18:09.168Z,60.80
2019-03-10T21:20:42.267Z,61.60
2019-03-10T21:23:15.053Z,59.60
2019-03-10T21:25:47.949Z,59.90
2019-03-10T21:28:20.829Z,61.60
2019-03-10T21:30:53.755Z,57.80
2019-03-10T21:33:26.687Z,58.90
2019-03-10T21:35:59.908Z,60.00
2019-03-10T21:38:32.868Z,58.30
2019-03-10T21:41:13.724Z,58.10
2019-03-10T21:43:40.646Z,57.60
2019-03-10T21:46:13.728Z,58.10
2019-03-10T21:48:47.227Z,58.90
2019-03-10T21:51:20.168Z,58.90
2019-03-10T21:53:52.935Z,61.10
2019-03-10T21:56:26.007Z,60.80
2019-03-10T21:58:59.187Z,59.10
2019-03-10T22:01:32.208Z,60.00
2019-03-10T22:04:05.095Z,58.60
2019-03-10T22:06:38.069Z,59.40
2019-03-10T22:09:10.969Z,59.80
2019-03-10T22:11:43.868Z,59.70
2019-03-10T22:14:17.130Z,59.40
2019-03-10T22:16:50.489Z,58.50
2019-03-10T22:19:23.697Z,59.30
2019-03-10T22:21:58.752Z,58.20
2019-03-10T22:24:31.647Z,56.90
2019-03-10T22:27:05.055Z,55.60
2019-03-10T22:29:40.116Z,56.00
2019-03-10T22:32:13.791Z,56.70
2019-03-10T22:34:47.710Z,58.60
2019-03-10T22:37:20.620Z,56.30
2019-03-10T22:39:53.468Z,56.30
2019-03-10T22:42:26.935Z,56.00
2019-03-10T22:44:59.810Z,55.90
2019-03-10T22:47:32.828Z,55.50
2019-03-10T22:50:05.568Z,55.50
2019-03-10T22:52:38.589Z,57.20
2019-03-10T22:55:11.749Z,58.50
2019-03-10T22:57:44.771Z,59.80
2019-03-10T23:00:17.632Z,60.10
2019-03-10T23:02:50.913Z,61.50
2019-03-10T23:05:25.508Z,61.40
2019-03-10T23:07:58.827Z,62.30
2019-03-10T23:10:33.348Z,62.30
2019-03-10T23:13:06.527Z,64.50
2019-03-10T23:15:40.308Z,63.30
2019-03-10T23:18:13.207Z,63.00
2019-03-10T23:20:46.507Z,63.40
2019-03-10T23:23:20.067Z,62.50
2019-03-10T23:25:53.052Z,61.50
2019-03-10T23:28:26.515Z,61.10
2019-03-10T23:30:59.448Z,60.30
2019-03-10T23:33:32.391Z,60.80
2019-03-10T23:36:05.391Z,60.40
2019-03-10T23:38:38.527Z,60.00
2019-03-10T23:41:11.387Z,60.80
2019-03-10T23:43:44.248Z,58.40
2019-03-10T23:46:17.168Z,58.30
2019-03-10T23:48:50.432Z,56.90
2019-03-10T23:51:23.348Z,58.20
2019-03-10T23:53:56.427Z,58.50
2019-03-10T23:56:31.828Z,57.40
2019-03-10T23:59:05.088Z,58.40
